sensor_id;sensor_type;location;lat;lon;timestamp;pressure;altitude;pressure_sealevel;temperature;humidity
60417;BME280;46263;44.726;10.396;2023-07-31T00:02:15;100114.06;;;29.44;55.56
60417;BME280;46263;44.726;10.396;2023-07-31T00:04:40;100109.88;;;29.47;55.92
60417;BME280;46263;44.726;10.396;2023-07-31T00:07:06;100093.31;;;29.47;56.24
60417;BME280;46263;44.726;10.396;2023-07-31T00:09:32;100092.81;;;29.53;56.46
60417;BME280;46263;44.726;10.396;2023-07-31T00:11:58;100094.94;;;29.52;56.81
60417;BME280;46263;44.726;10.396;2023-07-31T00:14:23;100104.13;;;29.47;57.42
60417;BME280;46263;44.726;10.396;2023-07-31T00:16:49;100101.97;;;29.47;58.19
60417;BME280;46263;44.726;10.396;2023-07-31T00:19:14;100101.97;;;29.47;57.90
60417;BME280;46263;44.726;10.396;2023-07-31T00:21:40;100104.03;;;29.45;58.46
60417;BME280;46263;44.726;10.396;2023-07-31T00:24:05;100102.41;;;29.40;58.41
60417;BME280;46263;44.726;10.396;2023-07-31T00:26:31;100110.13;;;29.35;58.15
60417;BME280;46263;44.726;10.396;2023-07-31T00:28:56;100114.25;;;29.30;57.91
60417;BME280;46263;44.726;10.396;2023-07-31T00:31:21;100113.44;;;29.28;57.71
60417;BME280;46263;44.726;10.396;2023-07-31T00:33:47;100114.69;;;29.23;56.80
60417;BME280;46263;44.726;10.396;2023-07-31T00:36:12;100115.50;;;29.25;57.30
60417;BME280;46263;44.726;10.396;2023-07-31T00:38:38;100120.44;;;29.23;56.91
60417;BME280;46263;44.726;10.396;2023-07-31T00:41:03;100127.66;;;29.24;56.28
60417;BME280;46263;44.726;10.396;2023-07-31T00:43:29;100127.66;;;29.24;55.88
60417;BME280;46263;44.726;10.396;2023-07-31T00:45:55;100130.53;;;29.24;55.36
60417;BME280;46263;44.726;10.396;2023-07-31T00:48:21;100126.13;;;29.21;54.98
60417;BME280;46263;44.726;10.396;2023-07-31T00:50:46;100134.75;;;29.21;54.55
60417;BME280;46263;44.726;10.396;2023-07-31T00:53:13;100126.78;;;29.19;54.77
60417;BME280;46263;44.726;10.396;2023-07-31T00:55:39;100128.25;;;29.20;54.72
60417;BME280;46263;44.726;10.396;2023-07-31T00:58:04;100138.84;;;29.16;53.79
60417;BME280;46263;44.726;10.396;2023-07-31T01:00:30;100140.19;;;29.13;52.35
60417;BME280;46263;44.726;10.396;2023-07-31T01:02:55;100140.78;;;29.10;52.25
60417;BME280;46263;44.726;10.396;2023-07-31T01:05:28;100141.50;;;29.10;52.57
60417;BME280;46263;44.726;10.396;2023-07-31T01:08:15;100140.53;;;28.86;52.24
60417;BME280;46263;44.726;10.396;2023-07-31T01:10:55;100144.44;;;28.77;52.74
60417;BME280;46263;44.726;10.396;2023-07-31T01:13:21;100136.28;;;28.72;52.78
60417;BME280;46263;44.726;10.396;2023-07-31T01:15:47;100151.34;;;28.70;52.52
60417;BME280;46263;44.726;10.396;2023-07-31T01:18:13;100152.25;;;28.57;53.18
60417;BME280;46263;44.726;10.396;2023-07-31T01:20:41;100144.91;;;28.54;53.20
60417;BME280;46263;44.726;10.396;2023-07-31T01:23:26;100152.19;;;28.40;53.64
60417;BME280;46263;44.726;10.396;2023-07-31T01:26:11;100157.03;;;28.35;53.76
60417;BME280;46263;44.726;10.396;2023-07-31T01:31:29;100140.75;;;28.25;53.96
60417;BME280;46263;44.726;10.396;2023-07-31T01:33:57;100140.25;;;28.30;53.59
60417;BME280;46263;44.726;10.396;2023-07-31T01:36:25;100140.41;;;28.34;54.15
60417;BME280;46263;44.726;10.396;2023-07-31T01:38:51;100145.16;;;28.27;53.74
60417;BME280;46263;44.726;10.396;2023-07-31T01:41:17;100147.56;;;28.33;54.36
60417;BME280;46263;44.726;10.396;2023-07-31T01:43:43;100142.63;;;28.35;54.22
60417;BME280;46263;44.726;10.396;2023-07-31T01:46:09;100142.00;;;28.37;54.17
60417;BME280;46263;44.726;10.396;2023-07-31T01:48:34;100133.06;;;28.46;54.81
60417;BME280;46263;44.726;10.396;2023-07-31T01:51:02;100140.78;;;28.42;54.61
60417;BME280;46263;44.726;10.396;2023-07-31T01:53:29;100131.75;;;28.49;54.40
60417;BME280;46263;44.726;10.396;2023-07-31T01:55:55;100127.97;;;28.45;54.67
60417;BME280;46263;44.726;10.396;2023-07-31T01:58:20;100122.47;;;28.51;54.63
60417;BME280;46263;44.726;10.396;2023-07-31T02:00:46;100125.81;;;28.45;55.57
60417;BME280;46263;44.726;10.396;2023-07-31T02:03:11;100122.69;;;28.39;55.77
60417;BME280;46263;44.726;10.396;2023-07-31T02:05:44;100122.69;;;28.39;56.14
60417;BME280;46263;44.726;10.396;2023-07-31T02:08:10;100117.97;;;28.30;55.86
60417;BME280;46263;44.726;10.396;2023-07-31T02:10:35;100125.31;;;28.18;56.26
60417;BME280;46263;44.726;10.396;2023-07-31T02:13:01;100122.00;;;28.24;56.55
60417;BME280;46263;44.726;10.396;2023-07-31T02:15:31;100124.06;;;28.21;57.15
60417;BME280;46263;44.726;10.396;2023-07-31T02:17:57;100124.22;;;28.25;57.73
60417;BME280;46263;44.726;10.396;2023-07-31T02:20:23;100128.84;;;28.17;57.79
60417;BME280;46263;44.726;10.396;2023-07-31T02:22:48;100131.38;;;28.09;58.17
60417;BME280;46263;44.726;10.396;2023-07-31T02:25:14;100129.13;;;28.07;58.33
60417;BME280;46263;44.726;10.396;2023-07-31T02:27:39;100117.28;;;27.99;58.04
60417;BME280;46263;44.726;10.396;2023-07-31T02:30:06;100123.53;;;27.94;57.06
60417;BME280;46263;44.726;10.396;2023-07-31T02:32:31;100123.22;;;28.03;57.65
60417;BME280;46263;44.726;10.396;2023-07-31T02:34:57;100127.22;;;27.96;57.36
60417;BME280;46263;44.726;10.396;2023-07-31T02:37:23;100127.22;;;27.96;57.48
60417;BME280;46263;44.726;10.396;2023-07-31T02:39:48;100123.69;;;27.98;57.54
60417;BME280;46263;44.726;10.396;2023-07-31T02:42:14;100113.56;;;27.97;57.34
60417;BME280;46263;44.726;10.396;2023-07-31T02:44:40;100116.44;;;27.97;57.85
60417;BME280;46263;44.726;10.396;2023-07-31T02:47:05;100119.06;;;27.91;57.54
60417;BME280;46263;44.726;10.396;2023-07-31T02:49:31;100119.63;;;27.72;57.52
60417;BME280;46263;44.726;10.396;2023-07-31T02:51:57;100119.38;;;27.66;58.28
60417;BME280;46263;44.726;10.396;2023-07-31T02:54:22;100115.19;;;27.69;58.16
60417;BME280;46263;44.726;10.396;2023-07-31T02:56:48;100121.88;;;27.73;57.92
60417;BME280;46263;44.726;10.396;2023-07-31T02:59:14;100129.75;;;27.73;58.28
60417;BME280;46263;44.726;10.396;2023-07-31T03:01:39;100118.53;;;27.63;57.76
60417;BME280;46263;44.726;10.396;2023-07-31T03:04:05;100121.66;;;27.54;58.29
60417;BME280;46263;44.726;10.396;2023-07-31T03:06:30;100131.56;;;27.51;57.99
60417;BME280;46263;44.726;10.396;2023-07-31T03:08:56;100129.91;;;27.46;58.50
60417;BME280;46263;44.726;10.396;2023-07-31T03:11:21;100138.69;;;27.50;58.13
60417;BME280;46263;44.726;10.396;2023-07-31T03:13:47;100134.91;;;27.61;58.35
60417;BME280;46263;44.726;10.396;2023-07-31T03:16:12;100132.22;;;27.49;58.12
60417;BME280;46263;44.726;10.396;2023-07-31T03:18:37;100134.63;;;27.55;58.71
60417;BME280;46263;44.726;10.396;2023-07-31T03:21:04;100130.56;;;27.60;58.72
60417;BME280;46263;44.726;10.396;2023-07-31T03:23:29;100139.81;;;27.58;58.51
60417;BME280;46263;44.726;10.396;2023-07-31T03:25:59;100145.88;;;27.64;58.56
60417;BME280;46263;44.726;10.396;2023-07-31T03:28:25;100139.47;;;27.66;58.52
60417;BME280;46263;44.726;10.396;2023-07-31T03:30:51;100135.38;;;27.71;58.04
60417;BME280;46263;44.726;10.396;2023-07-31T03:33:17;100138.00;;;27.65;58.30
60417;BME280;46263;44.726;10.396;2023-07-31T03:35:43;100143.06;;;27.66;58.22
60417;BME280;46263;44.726;10.396;2023-07-31T03:38:08;100145.41;;;27.70;58.70
60417;BME280;46263;44.726;10.396;2023-07-31T03:40:34;100145.31;;;27.68;58.50
60417;BME280;46263;44.726;10.396;2023-07-31T03:42:59;100141.13;;;27.71;57.99
60417;BME280;46263;44.726;10.396;2023-07-31T03:45:25;100145.41;;;27.70;58.39
60417;BME280;46263;44.726;10.396;2023-07-31T03:47:50;100141.88;;;27.71;57.72
60417;BME280;46263;44.726;10.396;2023-07-31T03:50:16;100143.84;;;27.67;58.27
60417;BME280;46263;44.726;10.396;2023-07-31T03:52:41;100142.34;;;27.66;58.72
60417;BME280;46263;44.726;10.396;2023-07-31T03:55:07;100150.03;;;27.61;59.02
60417;BME280;46263;44.726;10.396;2023-07-31T03:57:32;100141.09;;;27.40;58.20
60417;BME280;46263;44.726;10.396;2023-07-31T03:59:58;100146.34;;;27.30;58.89
60417;BME280;46263;44.726;10.396;2023-07-31T04:02:24;100144.75;;;27.12;59.26
60417;BME280;46263;44.726;10.396;2023-07-31T04:04:49;100150.88;;;26.91;59.66
60417;BME280;46263;44.726;10.396;2023-07-31T04:07:15;100155.44;;;26.96;59.63
60417;BME280;46263;44.726;10.396;2023-07-31T04:09:40;100155.78;;;26.88;59.95
60417;BME280;46263;44.726;10.396;2023-07-31T04:12:06;100150.88;;;27.04;59.42
60417;BME280;46263;44.726;10.396;2023-07-31T04:14:31;100156.59;;;27.04;59.24
60417;BME280;46263;44.726;10.396;2023-07-31T04:16:57;100148.06;;;27.06;59.45
60417;BME280;46263;44.726;10.396;2023-07-31T04:19:22;100141.06;;;27.09;59.36
60417;BME280;46263;44.726;10.396;2023-07-31T04:21:48;100146.34;;;27.15;59.34
60417;BME280;46263;44.726;10.396;2023-07-31T04:24:13;100152.09;;;27.15;58.83
60417;BME280;46263;44.726;10.396;2023-07-31T04:26:39;100151.03;;;27.08;59.09
60417;BME280;46263;44.726;10.396;2023-07-31T04:29:04;100149.69;;;26.96;58.86
60417;BME280;46263;44.726;10.396;2023-07-31T04:31:30;100157.94;;;26.74;59.54
60417;BME280;46263;44.726;10.396;2023-07-31T04:33:56;100156.50;;;26.60;59.65
60417;BME280;46263;44.726;10.396;2023-07-31T04:36:21;100152.88;;;26.60;59.98
60417;BME280;46263;44.726;10.396;2023-07-31T04:38:47;100152.00;;;26.70;59.53
60417;BME280;46263;44.726;10.396;2023-07-31T04:41:12;100163.09;;;26.63;59.79
60417;BME280;46263;44.726;10.396;2023-07-31T04:43:38;100157.06;;;26.43;60.05
60417;BME280;46263;44.726;10.396;2023-07-31T04:46:05;100159.91;;;26.30;60.38
60417;BME280;46263;44.726;10.396;2023-07-31T04:48:30;100165.84;;;26.34;60.33
60417;BME280;46263;44.726;10.396;2023-07-31T04:50:56;100163.09;;;26.22;61.01
60417;BME280;46263;44.726;10.396;2023-07-31T04:53:21;100163.94;;;26.38;60.52
60417;BME280;46263;44.726;10.396;2023-07-31T04:55:47;100155.78;;;26.33;60.70
60417;BME280;46263;44.726;10.396;2023-07-31T04:58:12;100164.78;;;26.54;60.38
60417;BME280;46263;44.726;10.396;2023-07-31T05:00:38;100158.41;;;26.69;60.56
60417;BME280;46263;44.726;10.396;2023-07-31T05:03:03;100159.81;;;26.83;60.15
60417;BME280;46263;44.726;10.396;2023-07-31T05:05:29;100161.97;;;26.83;60.96
60417;BME280;46263;44.726;10.396;2023-07-31T05:07:54;100160.53;;;26.97;60.11
60417;BME280;46263;44.726;10.396;2023-07-31T05:10:19;100170.59;;;26.98;58.91
60417;BME280;46263;44.726;10.396;2023-07-31T05:12:45;100167.44;;;26.92;58.71
60417;BME280;46263;44.726;10.396;2023-07-31T05:15:10;100173.34;;;26.81;58.68
60417;BME280;46263;44.726;10.396;2023-07-31T05:17:36;100169.03;;;26.95;58.11
60417;BME280;46263;44.726;10.396;2023-07-31T05:20:01;100172.09;;;26.99;57.96
60417;BME280;46263;44.726;10.396;2023-07-31T05:22:27;100166.34;;;26.99;58.72
60417;BME280;46263;44.726;10.396;2023-07-31T05:24:52;100178.75;;;27.17;59.43
60417;BME280;46263;44.726;10.396;2023-07-31T05:27:19;100170.63;;;27.27;58.69
60417;BME280;46263;44.726;10.396;2023-07-31T05:29:45;100176.09;;;27.21;58.57
60417;BME280;46263;44.726;10.396;2023-07-31T05:32:11;100179.69;;;27.22;58.40
60417;BME280;46263;44.726;10.396;2023-07-31T05:34:36;100180.03;;;27.14;58.76
60417;BME280;46263;44.726;10.396;2023-07-31T05:37:02;100171.44;;;27.14;59.02
60417;BME280;46263;44.726;10.396;2023-07-31T05:39:28;100173.22;;;27.21;58.58
60417;BME280;46263;44.726;10.396;2023-07-31T05:41:53;100178.81;;;27.04;59.41
60417;BME280;46263;44.726;10.396;2023-07-31T05:44:18;100186.59;;;27.01;59.79
60417;BME280;46263;44.726;10.396;2023-07-31T05:46:44;100187.03;;;27.25;59.75
60417;BME280;46263;44.726;10.396;2023-07-31T05:49:09;100185.38;;;27.35;60.17
60417;BME280;46263;44.726;10.396;2023-07-31T05:51:35;100188.75;;;27.45;60.65
60417;BME280;46263;44.726;10.396;2023-07-31T05:54:00;100188.38;;;27.52;60.08
60417;BME280;46263;44.726;10.396;2023-07-31T05:56:26;100193.91;;;27.62;60.56
60417;BME280;46263;44.726;10.396;2023-07-31T05:58:52;100190.63;;;27.69;60.62
60417;BME280;46263;44.726;10.396;2023-07-31T06:01:18;100203.25;;;27.78;60.88
60417;BME280;46263;44.726;10.396;2023-07-31T06:03:44;100199.53;;;27.75;61.03
60417;BME280;46263;44.726;10.396;2023-07-31T06:06:09;100204.72;;;27.79;60.48
60417;BME280;46263;44.726;10.396;2023-07-31T06:08:35;100205.03;;;27.85;61.01
60417;BME280;46263;44.726;10.396;2023-07-31T06:11:00;100203.72;;;27.88;60.54
60417;BME280;46263;44.726;10.396;2023-07-31T06:13:26;100198.25;;;27.94;60.78
60417;BME280;46263;44.726;10.396;2023-07-31T06:15:51;100202.88;;;27.70;61.51
60417;BME280;46263;44.726;10.396;2023-07-31T06:18:17;100208.63;;;27.70;62.34
60417;BME280;46263;44.726;10.396;2023-07-31T06:20:42;100214.00;;;27.62;62.71
60417;BME280;46263;44.726;10.396;2023-07-31T06:23:08;100218.75;;;27.86;62.54
60417;BME280;46263;44.726;10.396;2023-07-31T06:25:33;100224.84;;;27.94;62.96
60417;BME280;46263;44.726;10.396;2023-07-31T06:27:59;100218.81;;;28.04;62.44
60417;BME280;46263;44.726;10.396;2023-07-31T06:30:24;100224.94;;;28.12;61.93
60417;BME280;46263;44.726;10.396;2023-07-31T06:32:50;100222.81;;;28.12;61.43
60417;BME280;46263;44.726;10.396;2023-07-31T06:35:15;100218.09;;;28.19;61.34
60417;BME280;46263;44.726;10.396;2023-07-31T06:37:40;100222.75;;;28.26;61.21
60417;BME280;46263;44.726;10.396;2023-07-31T06:40:09;100215.88;;;28.32;61.59
60417;BME280;46263;44.726;10.396;2023-07-31T06:42:35;100217.72;;;28.41;61.91
60417;BME280;46263;44.726;10.396;2023-07-31T06:45:01;100223.06;;;28.49;61.46
60417;BME280;46263;44.726;10.396;2023-07-31T06:47:27;100225.50;;;28.39;62.10
60417;BME280;46263;44.726;10.396;2023-07-31T06:49:52;100219.34;;;28.46;61.52
60417;BME280;46263;44.726;10.396;2023-07-31T06:52:18;100221.66;;;28.50;61.12
60417;BME280;46263;44.726;10.396;2023-07-31T06:54:44;100231.56;;;28.62;61.67
60417;BME280;46263;44.726;10.396;2023-07-31T06:57:09;100231.00;;;28.66;62.13
60417;BME280;46263;44.726;10.396;2023-07-31T06:59:35;100231.56;;;28.62;61.33
60417;BME280;46263;44.726;10.396;2023-07-31T07:02:00;100237.34;;;28.62;61.05
60417;BME280;46263;44.726;10.396;2023-07-31T07:04:26;100230.63;;;28.73;60.93
60417;BME280;46263;44.726;10.396;2023-07-31T07:06:52;100232.94;;;28.77;62.22
60417;BME280;46263;44.726;10.396;2023-07-31T07:09:17;100229.28;;;28.76;62.67
60417;BME280;46263;44.726;10.396;2023-07-31T07:11:43;100230.06;;;28.77;62.35
60417;BME280;46263;44.726;10.396;2023-07-31T07:14:08;100232.84;;;28.75;62.74
60417;BME280;46263;44.726;10.396;2023-07-31T07:16:34;100239.63;;;28.81;63.00
60417;BME280;46263;44.726;10.396;2023-07-31T07:18:59;100248.13;;;28.95;62.04
60417;BME280;46263;44.726;10.396;2023-07-31T07:21:25;100242.53;;;28.99;62.40
60417;BME280;46263;44.726;10.396;2023-07-31T07:23:50;100245.94;;;29.11;61.92
60417;BME280;46263;44.726;10.396;2023-07-31T07:26:15;100253.38;;;29.00;62.27
60417;BME280;46263;44.726;10.396;2023-07-31T07:28:41;100252.19;;;29.05;62.10
60417;BME280;46263;44.726;10.396;2023-07-31T07:31:06;100255.78;;;29.06;61.69
60417;BME280;46263;44.726;10.396;2023-07-31T07:33:32;100263.47;;;29.16;61.91
60417;BME280;46263;44.726;10.396;2023-07-31T07:36:01;100253.44;;;29.17;62.36
60417;BME280;46263;44.726;10.396;2023-07-31T07:38:27;100251.47;;;29.22;62.15
60417;BME280;46263;44.726;10.396;2023-07-31T07:40:52;100256.66;;;29.25;62.51
60417;BME280;46263;44.726;10.396;2023-07-31T07:43:18;100249.81;;;29.34;62.60
60417;BME280;46263;44.726;10.396;2023-07-31T07:45:44;100252.28;;;29.42;62.13
60417;BME280;46263;44.726;10.396;2023-07-31T07:48:09;100238.38;;;29.36;62.68
60417;BME280;46263;44.726;10.396;2023-07-31T07:50:35;100249.34;;;29.40;62.96
60417;BME280;46263;44.726;10.396;2023-07-31T07:53:00;100245.38;;;29.49;62.33
60417;BME280;46263;44.726;10.396;2023-07-31T07:55:26;100253.19;;;29.46;62.59
60417;BME280;46263;44.726;10.396;2023-07-31T07:57:51;100248.34;;;29.51;62.73
60417;BME280;46263;44.726;10.396;2023-07-31T08:00:16;100242.50;;;29.49;63.56
60417;BME280;46263;44.726;10.396;2023-07-31T08:02:43;100241.84;;;29.50;63.20
60417;BME280;46263;44.726;10.396;2023-07-31T08:05:08;100237.72;;;29.55;63.31
60417;BME280;46263;44.726;10.396;2023-07-31T08:07:34;100240.84;;;29.61;63.06
60417;BME280;46263;44.726;10.396;2023-07-31T08:10:00;100240.34;;;29.67;63.28
60417;BME280;46263;44.726;10.396;2023-07-31T08:12:25;100233.03;;;29.64;63.50
60417;BME280;46263;44.726;10.396;2023-07-31T08:14:51;100235.56;;;29.73;64.02
60417;BME280;46263;44.726;10.396;2023-07-31T08:17:17;100230.84;;;29.82;62.80
60417;BME280;46263;44.726;10.396;2023-07-31T08:19:42;100230.59;;;29.76;63.82
60417;BME280;46263;44.726;10.396;2023-07-31T08:22:09;100244.28;;;29.75;63.74
60417;BME280;46263;44.726;10.396;2023-07-31T08:24:34;100243.94;;;29.85;62.69
60417;BME280;46263;44.726;10.396;2023-07-31T08:27:00;100246.97;;;29.89;62.11
60417;BME280;46263;44.726;10.396;2023-07-31T08:29:25;100237.09;;;29.94;61.34
60417;BME280;46263;44.726;10.396;2023-07-31T08:31:51;100227.06;;;29.95;61.53
60417;BME280;46263;44.726;10.396;2023-07-31T08:34:16;100229.94;;;29.95;61.84
60417;BME280;46263;44.726;10.396;2023-07-31T08:36:42;100233.72;;;29.99;61.67
60417;BME280;46263;44.726;10.396;2023-07-31T08:39:07;100232.53;;;30.06;61.81
60417;BME280;46263;44.726;10.396;2023-07-31T08:41:40;100232.47;;;30.04;61.65
60417;BME280;46263;44.726;10.396;2023-07-31T08:44:06;100221.72;;;30.06;61.11
60417;BME280;46263;44.726;10.396;2023-07-31T08:46:33;100229.75;;;30.08;61.07
60417;BME280;46263;44.726;10.396;2023-07-31T08:48:59;100233.56;;;30.14;61.61
60417;BME280;46263;44.726;10.396;2023-07-31T08:51:25;100238.16;;;30.21;60.98
60417;BME280;46263;44.726;10.396;2023-07-31T08:53:52;100234.03;;;30.26;60.03
60417;BME280;46263;44.726;10.396;2023-07-31T08:56:18;100232.69;;;30.29;59.28
60417;BME280;46263;44.726;10.396;2023-07-31T08:58:44;100222.72;;;30.32;59.79
60417;BME280;46263;44.726;10.396;2023-07-31T09:01:11;100219.00;;;30.30;59.05
60417;BME280;46263;44.726;10.396;2023-07-31T09:03:38;100212.72;;;30.35;59.39
60417;BME280;46263;44.726;10.396;2023-07-31T09:06:04;100220.13;;;30.40;59.84
60417;BME280;46263;44.726;10.396;2023-07-31T09:08:31;100220.19;;;30.42;58.75
60417;BME280;46263;44.726;10.396;2023-07-31T09:11:02;100209.31;;;30.41;57.29
60417;BME280;46263;44.726;10.396;2023-07-31T09:13:31;100208.44;;;30.36;57.61
60417;BME280;46263;44.726;10.396;2023-07-31T09:15:57;100219.22;;;30.36;57.32
60417;BME280;46263;44.726;10.396;2023-07-31T09:18:23;100215.97;;;30.45;56.69
60417;BME280;46263;44.726;10.396;2023-07-31T09:21:05;100219.03;;;30.49;57.00
60417;BME280;46263;44.726;10.396;2023-07-31T09:23:44;100210.56;;;30.55;55.38
60417;BME280;46263;44.726;10.396;2023-07-31T09:26:10;100212.94;;;30.61;55.98
60417;BME280;46263;44.726;10.396;2023-07-31T09:28:36;100207.97;;;30.63;55.55
60417;BME280;46263;44.726;10.396;2023-07-31T09:31:01;100206.66;;;30.66;54.90
60417;BME280;46263;44.726;10.396;2023-07-31T09:33:27;100203.97;;;30.72;55.26
60417;BME280;46263;44.726;10.396;2023-07-31T09:35:52;100201.88;;;30.75;55.22
60417;BME280;46263;44.726;10.396;2023-07-31T09:38:18;100206.94;;;30.74;55.37
60417;BME280;46263;44.726;10.396;2023-07-31T09:40:46;100201.97;;;30.77;55.52
60417;BME280;46263;44.726;10.396;2023-07-31T09:43:13;100205.72;;;30.81;55.59
60417;BME280;46263;44.726;10.396;2023-07-31T09:45:42;100208.81;;;30.87;54.43
60417;BME280;46263;44.726;10.396;2023-07-31T09:48:12;100215.41;;;30.89;54.70
60417;BME280;46263;44.726;10.396;2023-07-31T09:50:40;100208.81;;;30.87;55.42
60417;BME280;46263;44.726;10.396;2023-07-31T09:53:07;100209.69;;;30.91;55.56
60417;BME280;46263;44.726;10.396;2023-07-31T09:55:34;100203.19;;;30.91;54.16
60417;BME280;46263;44.726;10.396;2023-07-31T09:58:05;100204.66;;;30.92;54.76
60417;BME280;46263;44.726;10.396;2023-07-31T10:00:32;100212.13;;;30.99;55.74
60417;BME280;46263;44.726;10.396;2023-07-31T10:03:16;100197.78;;;31.01;55.34
60417;BME280;46263;44.726;10.396;2023-07-31T10:05:46;100200.06;;;31.04;55.20
60417;BME280;46263;44.726;10.396;2023-07-31T10:08:14;100203.16;;;31.10;54.94
60417;BME280;46263;44.726;10.396;2023-07-31T10:10:44;100186.69;;;31.15;55.23
60417;BME280;46263;44.726;10.396;2023-07-31T10:13:11;100197.97;;;31.07;55.69
60417;BME280;46263;44.726;10.396;2023-07-31T10:15:37;100193.94;;;31.16;55.06
60417;BME280;46263;44.726;10.396;2023-07-31T10:18:08;100188.28;;;31.20;55.09
60417;BME280;46263;44.726;10.396;2023-07-31T10:20:34;100189.75;;;31.21;55.53
60417;BME280;46263;44.726;10.396;2023-07-31T10:23:00;100186.31;;;31.26;54.58
60417;BME280;46263;44.726;10.396;2023-07-31T10:25:29;100189.91;;;31.25;55.42
60417;BME280;46263;44.726;10.396;2023-07-31T10:27:57;100192.22;;;31.30;54.64
60417;BME280;46263;44.726;10.396;2023-07-31T10:30:26;100182.91;;;31.32;54.60
60417;BME280;46263;44.726;10.396;2023-07-31T10:32:52;100185.28;;;31.39;54.60
60417;BME280;46263;44.726;10.396;2023-07-31T10:35:19;100181.78;;;31.43;55.44
60417;BME280;46263;44.726;10.396;2023-07-31T10:37:47;100179.59;;;31.41;54.30
60417;BME280;46263;44.726;10.396;2023-07-31T10:40:24;100182.63;;;31.45;53.96
60417;BME280;46263;44.726;10.396;2023-07-31T10:42:55;100186.03;;;31.40;53.39
60417;BME280;46263;44.726;10.396;2023-07-31T10:45:36;100174.81;;;31.50;55.50
60417;BME280;46263;44.726;10.396;2023-07-31T10:48:14;100174.19;;;31.53;53.90
60417;BME280;46263;44.726;10.396;2023-07-31T10:50:51;100167.81;;;31.57;54.51
60417;BME280;46263;44.726;10.396;2023-07-31T10:53:28;100163.50;;;31.58;53.68
60417;BME280;46263;44.726;10.396;2023-07-31T10:56:01;100159.81;;;31.55;53.62
60417;BME280;46263;44.726;10.396;2023-07-31T10:58:27;100156.34;;;31.61;54.04
60417;BME280;46263;44.726;10.396;2023-07-31T11:00:57;100152.84;;;31.64;53.18
60417;BME280;46263;44.726;10.396;2023-07-31T11:03:40;100161.59;;;31.66;55.03
60417;BME280;46263;44.726;10.396;2023-07-31T11:06:06;100150.09;;;31.68;54.51
60417;BME280;46263;44.726;10.396;2023-07-31T11:08:33;100161.22;;;31.77;54.33
60417;BME280;46263;44.726;10.396;2023-07-31T11:13:47;100150.63;;;31.86;55.39
60417;BME280;46263;44.726;10.396;2023-07-31T11:16:18;100155.78;;;31.89;55.87
60417;BME280;46263;44.726;10.396;2023-07-31T11:18:46;100153.00;;;31.93;54.63
60417;BME280;46263;44.726;10.396;2023-07-31T11:21:18;100148.75;;;31.96;53.70
60417;BME280;46263;44.726;10.396;2023-07-31T11:23:51;100148.75;;;31.96;52.71
60417;BME280;46263;44.726;10.396;2023-07-31T11:26:17;100141.66;;;32.01;55.28
60417;BME280;46263;44.726;10.396;2023-07-31T11:28:45;100147.44;;;32.01;54.06
60417;BME280;46263;44.726;10.396;2023-07-31T11:31:11;100138.97;;;32.07;53.66
60417;BME280;46263;44.726;10.396;2023-07-31T11:33:37;100128.88;;;32.08;52.38
60417;BME280;46263;44.726;10.396;2023-07-31T11:36:03;100131.88;;;32.12;53.49
60417;BME280;46263;44.726;10.396;2023-07-31T11:38:31;100124.69;;;32.13;53.34
60417;BME280;46263;44.726;10.396;2023-07-31T11:40:59;100130.34;;;32.09;51.43
60417;BME280;46263;44.726;10.396;2023-07-31T11:43:25;100126.88;;;32.15;52.78
60417;BME280;46263;44.726;10.396;2023-07-31T11:45:55;100130.47;;;32.13;53.03
60417;BME280;46263;44.726;10.396;2023-07-31T11:48:22;100118.94;;;32.15;52.80
60417;BME280;46263;44.726;10.396;2023-07-31T11:50:52;100108.16;;;32.18;52.27
60417;BME280;46263;44.726;10.396;2023-07-31T11:53:26;100112.63;;;32.23;53.33
60417;BME280;46263;44.726;10.396;2023-07-31T11:55:54;100103.88;;;32.21;52.07
60417;BME280;46263;44.726;10.396;2023-07-31T11:58:21;100101.00;;;32.21;51.17
60417;BME280;46263;44.726;10.396;2023-07-31T12:00:47;100106.84;;;32.23;51.93
60417;BME280;46263;44.726;10.396;2023-07-31T12:03:13;100107.69;;;32.27;52.06
60417;BME280;46263;44.726;10.396;2023-07-31T12:05:39;100098.28;;;32.27;50.72
60417;BME280;46263;44.726;10.396;2023-07-31T12:08:11;100101.13;;;32.25;51.41
60417;BME280;46263;44.726;10.396;2023-07-31T12:10:37;100097.47;;;32.24;50.26
60417;BME280;46263;44.726;10.396;2023-07-31T12:13:10;100097.75;;;32.34;52.49
60417;BME280;46263;44.726;10.396;2023-07-31T12:15:44;100100.06;;;32.40;50.92
60417;BME280;46263;44.726;10.396;2023-07-31T12:18:14;100094.44;;;32.45;51.32
60417;BME280;46263;44.726;10.396;2023-07-31T12:20:41;100085.00;;;32.45;51.31
60417;BME280;46263;44.726;10.396;2023-07-31T12:23:19;100077.84;;;32.48;50.18
60417;BME280;46263;44.726;10.396;2023-07-31T12:26:13;100075.13;;;32.54;50.93
60417;BME280;46263;44.726;10.396;2023-07-31T12:31:10;100063.69;;;32.60;50.50
60417;BME280;46263;44.726;10.396;2023-07-31T12:33:37;100055.09;;;32.64;51.26
60417;BME280;46263;44.726;10.396;2023-07-31T12:36:07;100062.38;;;32.65;50.03
60417;BME280;46263;44.726;10.396;2023-07-31T12:38:33;100053.03;;;32.68;50.31
60417;BME280;46263;44.726;10.396;2023-07-31T12:40:59;100045.81;;;32.69;51.03
60417;BME280;46263;44.726;10.396;2023-07-31T12:43:25;100048.91;;;32.77;51.48
60417;BME280;46263;44.726;10.396;2023-07-31T12:45:50;100046.72;;;32.76;49.40
60417;BME280;46263;44.726;10.396;2023-07-31T12:48:16;100043.91;;;32.80;51.49